sensor_id;sensor_type;location;lat;lon;timestamp;pressure;altitude;pressure_sealevel;temperature;humidity
61682;BME280;47577;43.610;25.010;2023-06-22T00:02:15;100646.91;;;19.87;83.25
61682;BME280;47577;43.610;25.010;2023-06-22T00:04:41;100653.19;;;19.87;83.77
61682;BME280;47577;43.610;25.010;2023-06-22T00:07:06;100653.06;;;19.76;82.97
61682;BME280;47577;43.610;25.010;2023-06-22T00:09:33;100650.91;;;19.81;83.63
61682;BME280;47577;43.610;25.010;2023-06-22T00:11:59;100650.69;;;19.84;86.07
61682;BME280;47577;43.610;25.010;2023-06-22T00:14:24;100649.19;;;19.93;86.77
61682;BME280;47577;43.610;25.010;2023-06-22T00:16:50;100657.50;;;19.90;86.76
61682;BME280;47577;43.610;25.010;2023-06-22T00:19:21;100662.69;;;19.93;86.43
61682;BME280;47577;43.610;25.010;2023-06-22T00:21:47;100665.72;;;20.01;85.47
61682;BME280;47577;43.610;25.010;2023-06-22T00:24:21;100652.97;;;20.03;85.92
61682;BME280;47577;43.610;25.010;2023-06-22T00:26:50;100653.28;;;19.99;83.93
61682;BME280;47577;43.610;25.010;2023-06-22T00:29:16;100644.66;;;20.06;84.98
61682;BME280;47577;43.610;25.010;2023-06-22T00:31:42;100638.81;;;20.00;83.05
61682;BME280;47577;43.610;25.010;2023-06-22T00:34:08;100658.38;;;20.03;82.56
61682;BME280;47577;43.610;25.010;2023-06-22T00:36:36;100647.66;;;19.89;82.82
61682;BME280;47577;43.610;25.010;2023-06-22T00:39:02;100643.28;;;19.73;86.11
61682;BME280;47577;43.610;25.010;2023-06-22T00:41:28;100641.06;;;19.80;85.31
61682;BME280;47577;43.610;25.010;2023-06-22T00:43:54;100636.06;;;19.74;83.98
61682;BME280;47577;43.610;25.010;2023-06-22T00:46:21;100634.81;;;19.80;84.07
61682;BME280;47577;43.610;25.010;2023-06-22T00:48:48;100616.41;;;19.59;85.53
61682;BME280;47577;43.610;25.010;2023-06-22T00:51:14;100612.66;;;19.62;84.56
61682;BME280;47577;43.610;25.010;2023-06-22T00:53:41;100606.22;;;19.50;85.69
61682;BME280;47577;43.610;25.010;2023-06-22T00:56:08;100618.16;;;19.60;85.19
61682;BME280;47577;43.610;25.010;2023-06-22T00:58:35;100609.59;;;19.66;84.77
61682;BME280;47577;43.610;25.010;2023-06-22T01:01:01;100624.94;;;19.66;86.40
61682;BME280;47577;43.610;25.010;2023-06-22T01:03:28;100619.94;;;19.60;86.01
61682;BME280;47577;43.610;25.010;2023-06-22T01:06:02;100625.03;;;19.64;86.47
61682;BME280;47577;43.610;25.010;2023-06-22T01:08:42;100638.41;;;19.66;84.71
61682;BME280;47577;43.610;25.010;2023-06-22T01:11:22;100634.38;;;19.46;88.89
61682;BME280;47577;43.610;25.010;2023-06-22T01:14:11;100643.03;;;19.51;88.34
61682;BME280;47577;43.610;25.010;2023-06-22T01:16:41;100642.84;;;19.67;86.37
61682;BME280;47577;43.610;25.010;2023-06-22T01:21:53;100638.81;;;19.60;84.91
61682;BME280;47577;43.610;25.010;2023-06-22T01:24:28;100641.88;;;19.55;85.90
61682;BME280;47577;43.610;25.010;2023-06-22T01:29:42;100641.03;;;19.40;86.80
61682;BME280;47577;43.610;25.010;2023-06-22T01:32:09;100657.91;;;19.44;85.14
61682;BME280;47577;43.610;25.010;2023-06-22T01:34:38;100664.84;;;19.33;86.63
61682;BME280;47577;43.610;25.010;2023-06-22T01:37:06;100660.69;;;19.42;86.50
61682;BME280;47577;43.610;25.010;2023-06-22T01:39:32;100658.00;;;19.42;86.00
61682;BME280;47577;43.610;25.010;2023-06-22T01:41:59;100662.06;;;19.35;86.06
61682;BME280;47577;43.610;25.010;2023-06-22T01:44:25;100674.03;;;19.31;85.83
61682;BME280;47577;43.610;25.010;2023-06-22T01:46:52;100674.22;;;19.28;86.25
61682;BME280;47577;43.610;25.010;2023-06-22T01:49:18;100662.75;;;19.24;85.56
61682;BME280;47577;43.610;25.010;2023-06-22T01:51:44;100669.03;;;19.25;86.14
61682;BME280;47577;43.610;25.010;2023-06-22T01:54:10;100676.88;;;19.15;86.50
61682;BME280;47577;43.610;25.010;2023-06-22T01:56:35;100676.06;;;19.13;85.95
61682;BME280;47577;43.610;25.010;2023-06-22T01:59:11;100676.97;;;19.13;86.21
61682;BME280;47577;43.610;25.010;2023-06-22T02:01:54;100651.34;;;19.06;86.80
61682;BME280;47577;43.610;25.010;2023-06-22T02:04:29;100668.00;;;19.13;86.83
61682;BME280;47577;43.610;25.010;2023-06-22T02:06:59;100672.81;;;19.08;85.85
61682;BME280;47577;43.610;25.010;2023-06-22T02:09:29;100681.00;;;19.06;85.72
61682;BME280;47577;43.610;25.010;2023-06-22T02:11:56;100670.41;;;19.03;86.29
61682;BME280;47577;43.610;25.010;2023-06-22T02:14:23;100669.09;;;18.96;87.24
61682;BME280;47577;43.610;25.010;2023-06-22T02:16:51;100668.25;;;18.95;87.16
61682;BME280;47577;43.610;25.010;2023-06-22T02:19:16;100677.00;;;18.99;86.79
61682;BME280;47577;43.610;25.010;2023-06-22T02:21:44;100674.28;;;18.99;85.54
61682;BME280;47577;43.610;25.010;2023-06-22T02:24:10;100675.91;;;19.02;84.67
61682;BME280;47577;43.610;25.010;2023-06-22T02:26:39;100666.50;;;18.94;85.40
61682;BME280;47577;43.610;25.010;2023-06-22T02:29:08;100675.53;;;18.93;86.40
61682;BME280;47577;43.610;25.010;2023-06-22T02:31:33;100679.22;;;18.92;86.12
61682;BME280;47577;43.610;25.010;2023-06-22T02:33:59;100679.59;;;19.00;85.83
61682;BME280;47577;43.610;25.010;2023-06-22T02:36:25;100690.84;;;18.93;85.82
61682;BME280;47577;43.610;25.010;2023-06-22T02:38:53;100690.19;;;18.89;85.97
61682;BME280;47577;43.610;25.010;2023-06-22T02:41:19;100689.00;;;18.93;86.08
61682;BME280;47577;43.610;25.010;2023-06-22T02:43:45;100692.47;;;18.81;87.23
61682;BME280;47577;43.610;25.010;2023-06-22T02:46:12;100694.97;;;18.70;86.68
61682;BME280;47577;43.610;25.010;2023-06-22T02:48:42;100704.91;;;18.55;87.77
61682;BME280;47577;43.610;25.010;2023-06-22T02:51:08;100712.19;;;18.67;86.05
61682;BME280;47577;43.610;25.010;2023-06-22T02:53:34;100718.84;;;18.76;86.20
61682;BME280;47577;43.610;25.010;2023-06-22T02:56:01;100715.56;;;18.85;87.12
61682;BME280;47577;43.610;25.010;2023-06-22T02:58:28;100714.44;;;18.89;85.39
61682;BME280;47577;43.610;25.010;2023-06-22T03:00:54;100719.25;;;18.84;85.94
61682;BME280;47577;43.610;25.010;2023-06-22T03:03:19;100712.88;;;18.85;86.94
61682;BME280;47577;43.610;25.010;2023-06-22T03:05:45;100727.34;;;18.84;87.44
61682;BME280;47577;43.610;25.010;2023-06-22T03:08:11;100727.03;;;18.89;87.45
61682;BME280;47577;43.610;25.010;2023-06-22T03:10:37;100724.13;;;18.92;87.02
61682;BME280;47577;43.610;25.010;2023-06-22T03:13:02;100723.94;;;18.95;87.21
61682;BME280;47577;43.610;25.010;2023-06-22T03:15:28;100723.09;;;18.94;87.02
61682;BME280;47577;43.610;25.010;2023-06-22T03:17:58;100718.44;;;18.96;86.61
61682;BME280;47577;43.610;25.010;2023-06-22T03:20:23;100721.84;;;19.00;86.64
61682;BME280;47577;43.610;25.010;2023-06-22T03:22:50;100729.41;;;18.93;86.67
61682;BME280;47577;43.610;25.010;2023-06-22T03:25:16;100723.09;;;18.94;86.72
61682;BME280;47577;43.610;25.010;2023-06-22T03:27:42;100723.34;;;19.04;86.62
61682;BME280;47577;43.610;25.010;2023-06-22T03:30:11;100726.72;;;19.08;87.65
61682;BME280;47577;43.610;25.010;2023-06-22T03:32:36;100722.88;;;19.12;88.03
61682;BME280;47577;43.610;25.010;2023-06-22T03:35:02;100730.84;;;19.13;89.20
61682;BME280;47577;43.610;25.010;2023-06-22T03:37:28;100729.47;;;19.21;88.64
61682;BME280;47577;43.610;25.010;2023-06-22T03:39:54;100727.25;;;19.27;87.53
61682;BME280;47577;43.610;25.010;2023-06-22T03:42:20;100735.81;;;19.34;86.76
61682;BME280;47577;43.610;25.010;2023-06-22T03:44:47;100740.91;;;19.39;87.01
61682;BME280;47577;43.610;25.010;2023-06-22T03:47:13;100743.84;;;19.48;85.91
61682;BME280;47577;43.610;25.010;2023-06-22T03:49:39;100743.91;;;19.61;86.54
61682;BME280;47577;43.610;25.010;2023-06-22T03:52:05;100741.56;;;19.69;85.32
61682;BME280;47577;43.610;25.010;2023-06-22T03:54:31;100750.94;;;19.78;86.03
61682;BME280;47577;43.610;25.010;2023-06-22T03:56:57;100759.38;;;19.86;86.96
61682;BME280;47577;43.610;25.010;2023-06-22T03:59:24;100754.22;;;19.96;87.09
61682;BME280;47577;43.610;25.010;2023-06-22T04:01:49;100762.84;;;20.01;86.21
61682;BME280;47577;43.610;25.010;2023-06-22T04:04:17;100759.75;;;20.07;87.23
61682;BME280;47577;43.610;25.010;2023-06-22T04:06:42;100747.34;;;20.18;86.15
61682;BME280;47577;43.610;25.010;2023-06-22T04:09:08;100739.16;;;20.32;85.80
61682;BME280;47577;43.610;25.010;2023-06-22T04:11:34;100749.00;;;20.46;85.89
61682;BME280;47577;43.610;25.010;2023-06-22T04:13:59;100741.13;;;20.56;85.85
61682;BME280;47577;43.610;25.010;2023-06-22T04:16:25;100735.75;;;20.69;85.67
61682;BME280;47577;43.610;25.010;2023-06-22T04:18:51;100739.53;;;20.79;85.34
61682;BME280;47577;43.610;25.010;2023-06-22T04:21:17;100739.72;;;20.89;85.42
61682;BME280;47577;43.610;25.010;2023-06-22T04:23:45;100739.38;;;21.06;85.46
61682;BME280;47577;43.610;25.010;2023-06-22T04:26:12;100736.75;;;21.17;84.89
61682;BME280;47577;43.610;25.010;2023-06-22T04:28:37;100721.78;;;21.25;82.97
61682;BME280;47577;43.610;25.010;2023-06-22T04:31:03;100725.22;;;21.40;83.29
61682;BME280;47577;43.610;25.010;2023-06-22T04:33:30;100727.91;;;21.40;82.26
61682;BME280;47577;43.610;25.010;2023-06-22T04:35:56;100733.97;;;21.56;81.34
61682;BME280;47577;43.610;25.010;2023-06-22T04:38:29;100733.06;;;21.55;81.25
61682;BME280;47577;43.610;25.010;2023-06-22T04:40:58;100744.72;;;21.69;82.05
61682;BME280;47577;43.610;25.010;2023-06-22T04:43:26;100744.00;;;21.78;81.84
61682;BME280;47577;43.610;25.010;2023-06-22T04:45:58;100742.19;;;21.79;81.23
61682;BME280;47577;43.610;25.010;2023-06-22T04:48:31;100744.19;;;21.88;80.99
61682;BME280;47577;43.610;25.010;2023-06-22T04:51:01;100748.66;;;22.00;80.77
61682;BME280;47577;43.610;25.010;2023-06-22T04:53:30;100748.72;;;22.12;81.77
61682;BME280;47577;43.610;25.010;2023-06-22T04:55:56;100756.53;;;22.27;81.90
61682;BME280;47577;43.610;25.010;2023-06-22T04:58:22;100760.25;;;22.38;80.83
61682;BME280;47577;43.610;25.010;2023-06-22T05:00:47;100756.72;;;22.49;81.05
61682;BME280;47577;43.610;25.010;2023-06-22T05:03:13;100776.56;;;22.60;79.25
61682;BME280;47577;43.610;25.010;2023-06-22T05:05:39;100761.81;;;22.64;79.66
61682;BME280;47577;43.610;25.010;2023-06-22T05:08:04;100764.25;;;22.79;78.16
61682;BME280;47577;43.610;25.010;2023-06-22T05:10:33;100761.53;;;22.90;78.24
61682;BME280;47577;43.610;25.010;2023-06-22T05:12:59;100773.63;;;22.97;77.92
61682;BME280;47577;43.610;25.010;2023-06-22T05:15:24;100766.25;;;22.99;78.48
61682;BME280;47577;43.610;25.010;2023-06-22T05:17:53;100765.88;;;23.04;78.96
61682;BME280;47577;43.610;25.010;2023-06-22T05:20:19;100773.19;;;23.15;78.03
61682;BME280;47577;43.610;25.010;2023-06-22T05:22:48;100778.34;;;23.18;78.09
61682;BME280;47577;43.610;25.010;2023-06-22T05:25:13;100771.31;;;23.27;76.61
61682;BME280;47577;43.610;25.010;2023-06-22T05:27:39;100782.50;;;23.45;76.09
61682;BME280;47577;43.610;25.010;2023-06-22T05:30:06;100780.28;;;23.50;78.07
61682;BME280;47577;43.610;25.010;2023-06-22T05:32:32;100781.97;;;23.62;77.61
61682;BME280;47577;43.610;25.010;2023-06-22T05:34:57;100773.63;;;23.54;76.49
61682;BME280;47577;43.610;25.010;2023-06-22T05:37:23;100773.72;;;23.64;75.64
61682;BME280;47577;43.610;25.010;2023-06-22T05:39:48;100782.56;;;23.77;75.46
61682;BME280;47577;43.610;25.010;2023-06-22T05:42:14;100792.81;;;23.85;76.55
61682;BME280;47577;43.610;25.010;2023-06-22T05:44:40;100782.69;;;23.76;76.57
61682;BME280;47577;43.610;25.010;2023-06-22T05:47:06;100794.47;;;23.97;75.05
61682;BME280;47577;43.610;25.010;2023-06-22T05:49:31;100784.56;;;24.07;74.01
61682;BME280;47577;43.610;25.010;2023-06-22T05:51:58;100780.53;;;24.23;73.86
61682;BME280;47577;43.610;25.010;2023-06-22T05:54:26;100790.63;;;24.32;72.96
61682;BME280;47577;43.610;25.010;2023-06-22T05:56:52;100779.81;;;24.42;71.97
61682;BME280;47577;43.610;25.010;2023-06-22T05:59:18;100793.13;;;24.56;71.03
61682;BME280;47577;43.610;25.010;2023-06-22T06:01:44;100788.16;;;24.50;70.44
61682;BME280;47577;43.610;25.010;2023-06-22T06:04:09;100780.88;;;24.51;70.71
61682;BME280;47577;43.610;25.010;2023-06-22T06:06:35;100786.03;;;24.54;72.17
61682;BME280;47577;43.610;25.010;2023-06-22T06:09:06;100787.22;;;24.72;71.89
61682;BME280;47577;43.610;25.010;2023-06-22T06:11:33;100778.38;;;24.80;69.19
61682;BME280;47577;43.610;25.010;2023-06-22T06:13:58;100783.75;;;24.91;68.77
61682;BME280;47577;43.610;25.010;2023-06-22T06:16:24;100778.63;;;24.98;69.48
61682;BME280;47577;43.610;25.010;2023-06-22T06:18:50;100775.66;;;25.11;69.37
61682;BME280;47577;43.610;25.010;2023-06-22T06:21:16;100786.38;;;25.33;69.72
61682;BME280;47577;43.610;25.010;2023-06-22T06:23:42;100782.38;;;25.47;68.70
61682;BME280;47577;43.610;25.010;2023-06-22T06:26:08;100788.41;;;25.51;68.53
61682;BME280;47577;43.610;25.010;2023-06-22T06:28:34;100778.97;;;25.65;68.22
61682;BME280;47577;43.610;25.010;2023-06-22T06:31:00;100785.69;;;25.61;66.55
61682;BME280;47577;43.610;25.010;2023-06-22T06:33:26;100789.69;;;25.47;68.63
61682;BME280;47577;43.610;25.010;2023-06-22T06:35:51;100773.53;;;25.55;68.49
61682;BME280;47577;43.610;25.010;2023-06-22T06:38:17;100780.41;;;25.69;68.52
61682;BME280;47577;43.610;25.010;2023-06-22T06:40:43;100773.84;;;25.91;66.93
61682;BME280;47577;43.610;25.010;2023-06-22T06:43:10;100778.47;;;26.00;66.94
61682;BME280;47577;43.610;25.010;2023-06-22T06:45:36;100783.38;;;26.06;66.22
61682;BME280;47577;43.610;25.010;2023-06-22T06:48:01;100777.47;;;26.11;66.67
61682;BME280;47577;43.610;25.010;2023-06-22T06:50:27;100773.19;;;26.08;68.32
61682;BME280;47577;43.610;25.010;2023-06-22T06:52:53;100765.69;;;26.20;66.28
61682;BME280;47577;43.610;25.010;2023-06-22T06:55:19;100774.13;;;26.37;68.01
61682;BME280;47577;43.610;25.010;2023-06-22T06:57:45;100772.56;;;26.44;66.91
61682;BME280;47577;43.610;25.010;2023-06-22T07:00:14;100780.59;;;26.45;68.50
61682;BME280;47577;43.610;25.010;2023-06-22T07:02:40;100773.00;;;26.49;62.95
61682;BME280;47577;43.610;25.010;2023-06-22T09:58:51;100750.03;;;32.83;38.45
61682;BME280;47577;43.610;25.010;2023-06-22T10:01:18;100747.75;;;32.86;38.81
61682;BME280;47577;43.610;25.010;2023-06-22T10:03:43;100741.09;;;32.95;39.40
61682;BME280;47577;43.610;25.010;2023-06-22T10:06:09;100736.91;;;32.85;40.13
61682;BME280;47577;43.610;25.010;2023-06-22T10:08:35;100731.56;;;32.53;39.66
61682;BME280;47577;43.610;25.010;2023-06-22T10:11:01;100731.94;;;32.50;38.04
61682;BME280;47577;43.610;25.010;2023-06-22T10:13:27;100730.28;;;32.26;36.71
61682;BME280;47577;43.610;25.010;2023-06-22T10:15:53;100730.81;;;32.44;39.34
61682;BME280;47577;43.610;25.010;2023-06-22T10:18:19;100727.53;;;32.79;37.92
61682;BME280;47577;43.610;25.010;2023-06-22T10:20:49;100725.03;;;32.99;39.17
61682;BME280;47577;43.610;25.010;2023-06-22T10:23:19;100726.47;;;33.10;38.79
61682;BME280;47577;43.610;25.010;2023-06-22T10:25:45;100715.81;;;33.22;37.35
61682;BME280;47577;43.610;25.010;2023-06-22T10:28:10;100719.59;;;33.36;39.04
61682;BME280;47577;43.610;25.010;2023-06-22T10:30:36;100716.84;;;33.36;35.96
61682;BME280;47577;43.610;25.010;2023-06-22T10:33:02;100716.28;;;33.40;35.99
61682;BME280;47577;43.610;25.010;2023-06-22T10:35:28;100700.06;;;33.52;36.42
61682;BME280;47577;43.610;25.010;2023-06-22T10:37:55;100707.28;;;33.16;36.49
61682;BME280;47577;43.610;25.010;2023-06-22T10:40:21;100696.31;;;33.38;35.94
61682;BME280;47577;43.610;25.010;2023-06-22T10:42:47;100696.34;;;33.60;35.09
61682;BME280;47577;43.610;25.010;2023-06-22T10:45:12;100702.69;;;33.39;35.58
61682;BME280;47577;43.610;25.010;2023-06-22T10:47:39;100690.34;;;33.56;35.35
61682;BME280;47577;43.610;25.010;2023-06-22T10:50:05;100695.41;;;33.52;36.85
61682;BME280;47577;43.610;25.010;2023-06-22T10:52:31;100691.09;;;33.65;37.74
61682;BME280;47577;43.610;25.010;2023-06-22T10:54:56;100702.53;;;33.83;37.34
61682;BME280;47577;43.610;25.010;2023-06-22T10:57:22;100698.19;;;33.96;36.50
61682;BME280;47577;43.610;25.010;2023-06-22T10:59:48;100693.19;;;34.06;35.20
61682;BME280;47577;43.610;25.010;2023-06-22T11:02:14;100694.72;;;33.87;34.74
61682;BME280;47577;43.610;25.010;2023-06-22T11:04:39;100685.22;;;33.53;36.24
61682;BME280;47577;43.610;25.010;2023-06-22T11:07:05;100691.03;;;33.58;38.78
61682;BME280;47577;43.610;25.010;2023-06-22T11:09:31;100689.34;;;33.79;38.41
61682;BME280;47577;43.610;25.010;2023-06-22T11:11:57;100696.78;;;34.06;38.37
61682;BME280;47577;43.610;25.010;2023-06-22T11:14:24;100685.56;;;34.08;36.21
61682;BME280;47577;43.610;25.010;2023-06-22T11:16:50;100696.41;;;33.66;36.29
61682;BME280;47577;43.610;25.010;2023-06-22T11:19:16;100701.22;;;34.01;36.69
61682;BME280;47577;43.610;25.010;2023-06-22T11:21:42;100697.47;;;34.09;37.82
61682;BME280;47577;43.610;25.010;2023-06-22T11:24:07;100699.31;;;34.23;35.33
61682;BME280;47577;43.610;25.010;2023-06-22T11:26:33;100698.59;;;34.42;36.39
61682;BME280;47577;43.610;25.010;2023-06-22T11:28:59;100692.03;;;34.50;35.51
61682;BME280;47577;43.610;25.010;2023-06-22T11:31:26;100692.97;;;34.57;34.77
61682;BME280;47577;43.610;25.010;2023-06-22T11:33:52;100693.22;;;34.69;35.13
61682;BME280;47577;43.610;25.010;2023-06-22T11:36:18;100695.06;;;34.90;34.64
61682;BME280;47577;43.610;25.010;2023-06-22T11:38:43;100692.22;;;35.12;32.29
61682;BME280;47577;43.610;25.010;2023-06-22T11:41:10;100686.81;;;34.97;31.89
61682;BME280;47577;43.610;25.010;2023-06-22T11:43:35;100683.19;;;34.96;34.37
61682;BME280;47577;43.610;25.010;2023-06-22T11:46:03;100690.25;;;34.99;36.22
61682;BME280;47577;43.610;25.010;2023-06-22T11:48:29;100690.50;;;35.11;35.63
61682;BME280;47577;43.610;25.010;2023-06-22T11:50:55;100677.38;;;35.26;34.89
61682;BME280;47577;43.610;25.010;2023-06-22T11:53:22;100682.50;;;35.29;35.91
61682;BME280;47577;43.610;25.010;2023-06-22T11:55:47;100683.19;;;35.38;34.98
61682;BME280;47577;43.610;25.010;2023-06-22T11:58:14;100682.34;;;35.51;34.73
61682;BME280;47577;43.610;25.010;2023-06-22T12:00:40;100671.09;;;35.59;32.36
61682;BME280;47577;43.610;25.010;2023-06-22T12:03:07;100672.56;;;35.55;34.20
61682;BME280;47577;43.610;25.010;2023-06-22T12:05:33;100677.88;;;35.57;33.50
61682;BME280;47577;43.610;25.010;2023-06-22T12:07:58;100672.31;;;35.30;33.32
61682;BME280;47577;43.610;25.010;2023-06-22T12:10:25;100675.44;;;35.20;32.90
61682;BME280;47577;43.610;25.010;2023-06-22T12:12:52;100670.81;;;35.34;32.02
61682;BME280;47577;43.610;25.010;2023-06-22T12:15:18;100669.34;;;35.31;33.00
61682;BME280;47577;43.610;25.010;2023-06-22T12:17:44;100661.81;;;35.12;32.53
61682;BME280;47577;43.610;25.010;2023-06-22T12:20:10;100665.84;;;35.09;34.95
61682;BME280;47577;43.610;25.010;2023-06-22T12:22:35;100663.16;;;34.81;33.95
61682;BME280;47577;43.610;25.010;2023-06-22T12:25:03;100654.28;;;34.51;36.96
61682;BME280;47577;43.610;25.010;2023-06-22T12:27:29;100664.88;;;34.47;35.74
61682;BME280;47577;43.610;25.010;2023-06-22T12:29:56;100651.84;;;34.34;36.15
61682;BME280;47577;43.610;25.010;2023-06-22T12:32:22;100655.56;;;34.55;34.62
61682;BME280;47577;43.610;25.010;2023-06-22T12:34:47;100651.88;;;34.76;37.26
61682;BME280;47577;43.610;25.010;2023-06-22T12:37:13;100643.41;;;34.84;35.44
61682;BME280;47577;43.610;25.010;2023-06-22T12:39:41;100638.28;;;34.74;35.44
61682;BME280;47577;43.610;25.010;2023-06-22T12:42:07;100640.28;;;34.94;34.73
61682;BME280;47577;43.610;25.010;2023-06-22T12:44:37;100629.09;;;35.09;33.70
61682;BME280;47577;43.610;25.010;2023-06-22T12:47:03;100623.16;;;35.12;32.85
61682;BME280;47577;43.610;25.010;2023-06-22T12:49:29;100637.56;;;35.07;33.99
61682;BME280;47577;43.610;25.010;2023-06-22T12:51:55;100635.31;;;35.24;34.14
61682;BME280;47577;43.610;25.010;2023-06-22T12:54:20;100632.13;;;35.34;34.05
61682;BME280;47577;43.610;25.010;2023-06-22T12:56:46;100626.63;;;35.41;34.74
61682;BME280;47577;43.610;25.010;2023-06-22T12:59:12;100640.63;;;35.39;34.10
61682;BME280;47577;43.610;25.010;2023-06-22T13:01:38;100628.00;;;35.03;32.61
61682;BME280;47577;43.610;25.010;2023-06-22T13:04:03;100624.56;;;34.88;32.62
61682;BME280;47577;43.610;25.010;2023-06-22T13:06:29;100623.75;;;35.01;32.72
61682;BME280;47577;43.610;25.010;2023-06-22T13:08:55;100621.03;;;35.14;32.36
61682;BME280;47577;43.610;25.010;2023-06-22T13:11:21;100618.44;;;35.06;32.84
61682;BME280;47577;43.610;25.010;2023-06-22T13:13:46;100616.94;;;35.03;33.52
61682;BME280;47577;43.610;25.010;2023-06-22T13:16:12;100597.34;;;34.78;32.45
61682;BME280;47577;43.610;25.010;2023-06-22T13:18:38;100610.72;;;34.46;33.29
61682;BME280;47577;43.610;25.010;2023-06-22T13:21:04;100616.03;;;34.19;32.13
61682;BME280;47577;43.610;25.010;2023-06-22T13:23:30;100601.63;;;34.17;32.69
61682;BME280;47577;43.610;25.010;2023-06-22T13:25:57;100606.41;;;34.02;35.62
61682;BME280;47577;43.610;25.010;2023-06-22T13:28:26;100609.91;;;33.89;33.13
61682;BME280;47577;43.610;25.010;2023-06-22T13:30:51;100613.47;;;33.83;35.12
61682;BME280;47577;43.610;25.010;2023-06-22T13:33:17;100612.66;;;33.89;35.78
61682;BME280;47577;43.610;25.010;2023-06-22T13:35:43;100603.94;;;33.85;35.55
61682;BME280;47577;43.610;25.010;2023-06-22T13:38:09;100611.16;;;33.86;41.95
61682;BME280;47577;43.610;25.010;2023-06-22T13:40:35;100600.78;;;33.67;42.21
61682;BME280;47577;43.610;25.010;2023-06-22T13:43:02;100605.31;;;33.31;41.44
61682;BME280;47577;43.610;25.010;2023-06-22T13:45:27;100602.72;;;33.23;43.10
61682;BME280;47577;43.610;25.010;2023-06-22T13:47:53;100596.13;;;32.88;44.07
61682;BME280;47577;43.610;25.010;2023-06-22T13:50:19;100598.94;;;32.73;43.13
61682;BME280;47577;43.610;25.010;2023-06-22T13:52:44;100594.91;;;32.60;41.82
61682;BME280;47577;43.610;25.010;2023-06-22T13:55:10;100605.00;;;32.53;44.55
61682;BME280;47577;43.610;25.010;2023-06-22T13:57:36;100605.84;;;32.24;45.07
61682;BME280;47577;43.610;25.010;2023-06-22T14:00:03;100602.72;;;32.12;44.97
61682;BME280;47577;43.610;25.010;2023-06-22T14:02:33;100604.38;;;31.98;45.44
61682;BME280;47577;43.610;25.010;2023-06-22T14:04:59;100605.56;;;31.81;45.41
61682;BME280;47577;43.610;25.010;2023-06-22T14:07:25;100602.25;;;31.70;46.18
61682;BME280;47577;43.610;25.010;2023-06-22T14:09:51;100602.50;;;31.61;48.30
61682;BME280;47577;43.610;25.010;2023-06-22T14:12:16;100594.47;;;31.51;49.58
61682;BME280;47577;43.610;25.010;2023-06-22T14:14:45;100598.63;;;31.47;48.31
61682;BME280;47577;43.610;25.010;2023-06-22T14:17:11;100610.69;;;31.38;51.10
61682;BME280;47577;43.610;25.010;2023-06-22T14:19:37;100596.56;;;31.26;49.76
61682;BME280;47577;43.610;25.010;2023-06-22T14:22:03;100589.78;;;31.13;47.06
61682;BME280;47577;43.610;25.010;2023-06-22T14:24:29;100595.47;;;31.12;49.00
61682;BME280;47577;43.610;25.010;2023-06-22T14:26:55;100596.50;;;31.11;49.35
61682;BME280;47577;43.610;25.010;2023-06-22T14:29:22;100586.41;;;31.03;51.64
61682;BME280;47577;43.610;25.010;2023-06-22T14:31:48;100583.19;;;30.99;52.05
61682;BME280;47577;43.610;25.010;2023-06-22T14:34:15;100583.19;;;30.99;52.99
61682;BME280;47577;43.610;25.010;2023-06-22T14:36:41;100578.53;;;31.00;52.11
61682;BME280;47577;43.610;25.010;2023-06-22T14:39:08;100576.66;;;31.01;51.93
61682;BME280;47577;43.610;25.010;2023-06-22T14:41:34;100573.03;;;31.00;51.45
61682;BME280;47577;43.610;25.010;2023-06-22T14:43:59;100568.25;;;31.02;51.40
61682;BME280;47577;43.610;25.010;2023-06-22T14:46:25;100562.75;;;31.02;51.30
61682;BME280;47577;43.610;25.010;2023-06-22T14:48:51;100565.69;;;31.01;52.07
61682;BME280;47577;43.610;25.010;2023-06-22T14:51:16;100558.00;;;30.88;52.16
61682;BME280;47577;43.610;25.010;2023-06-22T14:53:46;100565.53;;;30.94;51.61
61682;BME280;47577;43.610;25.010;2023-06-22T14:56:12;100562.25;;;30.98;52.82
61682;BME280;47577;43.610;25.010;2023-06-22T14:58:40;100556.56;;;31.00;53.11
61682;BME280;47577;43.610;25.010;2023-06-22T15:01:05;100551.19;;;31.07;53.00
61682;BME280;47577;43.610;25.010;2023-06-22T15:03:34;100545.16;;;31.11;52.79
61682;BME280;47577;43.610;25.010;2023-06-22T15:06:02;100549.03;;;31.25;52.62
61682;BME280;47577;43.610;25.010;2023-06-22T15:08:28;100558.59;;;31.29;52.89
61682;BME280;47577;43.610;25.010;2023-06-22T15:10:54;100549.78;;;31.34;52.76
61682;BME280;47577;43.610;25.010;2023-06-22T15:13:21;100563.16;;;31.37;52.91
61682;BME280;47577;43.610;25.010;2023-06-22T15:15:48;100558.84;;;31.43;52.55
61682;BME280;47577;43.610;25.010;2023-06-22T15:18:16;100556.28;;;31.41;51.26
61682;BME280;47577;43.610;25.010;2023-06-22T15:20:43;100555.91;;;31.44;51.60
61682;BME280;47577;43.610;25.010;2023-06-22T15:23:13;100555.50;;;31.56;51.74
61682;BME280;47577;43.610;25.010;2023-06-22T15:25:39;100554.72;;;31.62;51.37
61682;BME280;47577;43.610;25.010;2023-06-22T15:28:05;100566.78;;;31.61;51.19
61682;BME280;47577;43.610;25.010;2023-06-22T15:30:30;100570.19;;;31.63;52.89
61682;BME280;47577;43.610;25.010;2023-06-22T15:32:57;100566.31;;;31.57;52.62
61682;BME280;47577;43.610;25.010;2023-06-22T15:35:23;100570.44;;;31.53;53.12
61682;BME280;47577;43.610;25.010;2023-06-22T15:37:49;100558.63;;;31.52;52.87